sensor_id;sensor_type;location;lat;lon;timestamp;temperature;humidity
7192;DHT22;3637;51.494;11.958;2022-07-23T00:00:15;20.00;79.50
7192;DHT22;3637;51.494;11.958;2022-07-23T00:03:17;20.00;79.60
7192;DHT22;3637;51.494;11.958;2022-07-23T00:06:19;19.80;80.00
7192;DHT22;3637;51.494;11.958;2022-07-23T00:09:21;19.80;80.10
7192;DHT22;3637;51.494;11.958;2022-07-23T00:12:24;19.80;80.30
7192;DHT22;3637;51.494;11.958;2022-07-23T00:15:26;19.70;80.40
7192;DHT22;3637;51.494;11.958;2022-07-23T00:18:28;19.70;80.60
7192;DHT22;3637;51.494;11.958;2022-07-23T00:21:30;19.90;80.20
7192;DHT22;3637;51.494;11.958;2022-07-23T00:24:32;19.80;80.30
7192;DHT22;3637;51.494;11.958;2022-07-23T00:27:35;19.80;80.20
7192;DHT22;3637;51.494;11.958;2022-07-23T00:30:37;19.80;80.20
7192;DHT22;3637;51.494;11.958;2022-07-23T00:33:39;19.80;79.90
7192;DHT22;3637;51.494;11.958;2022-07-23T00:36:41;19.90;79.90
7192;DHT22;3637;51.494;11.958;2022-07-23T00:39:43;19.70;80.20
7192;DHT22;3637;51.494;11.958;2022-07-23T00:42:46;19.80;80.30
7192;DHT22;3637;51.494;11.958;2022-07-23T00:45:48;19.80;79.80
7192;DHT22;3637;51.494;11.958;2022-07-23T00:48:50;19.80;79.90
7192;DHT22;3637;51.494;11.958;2022-07-23T00:51:52;19.90;79.50
7192;DHT22;3637;51.494;11.958;2022-07-23T00:54:55;19.70;79.30
7192;DHT22;3637;51.494;11.958;2022-07-23T00:57:58;19.90;79.50
7192;DHT22;3637;51.494;11.958;2022-07-23T01:01:00;19.70;79.30
7192;DHT22;3637;51.494;11.958;2022-07-23T01:04:02;19.80;79.70
7192;DHT22;3637;51.494;11.958;2022-07-23T01:07:04;19.80;79.40
7192;DHT22;3637;51.494;11.958;2022-07-23T01:10:07;19.70;79.50
7192;DHT22;3637;51.494;11.958;2022-07-23T01:13:31;19.70;79.90
7192;DHT22;3637;51.494;11.958;2022-07-23T01:16:33;19.60;80.00
7192;DHT22;3637;51.494;11.958;2022-07-23T01:19:34;19.60;80.20
7192;DHT22;3637;51.494;11.958;2022-07-23T01:22:38;19.50;80.40
7192;DHT22;3637;51.494;11.958;2022-07-23T01:25:47;19.50;80.20
7192;DHT22;3637;51.494;11.958;2022-07-23T01:28:49;19.50;81.10
7192;DHT22;3637;51.494;11.958;2022-07-23T01:31:51;19.40;80.30
7192;DHT22;3637;51.494;11.958;2022-07-23T01:34:53;19.50;80.70
7192;DHT22;3637;51.494;11.958;2022-07-23T01:37:56;19.50;80.30
7192;DHT22;3637;51.494;11.958;2022-07-23T01:40:58;19.50;80.70
7192;DHT22;3637;51.494;11.958;2022-07-23T01:44:00;19.40;80.80
7192;DHT22;3637;51.494;11.958;2022-07-23T01:47:02;19.40;81.00
7192;DHT22;3637;51.494;11.958;2022-07-23T01:50:05;19.20;81.80
7192;DHT22;3637;51.494;11.958;2022-07-23T01:53:08;19.10;82.20
7192;DHT22;3637;51.494;11.958;2022-07-23T01:56:10;19.10;82.40
7192;DHT22;3637;51.494;11.958;2022-07-23T01:59:12;19.10;82.70
7192;DHT22;3637;51.494;11.958;2022-07-23T02:02:14;19.00;83.20
7192;DHT22;3637;51.494;11.958;2022-07-23T02:05:16;19.00;83.20
7192;DHT22;3637;51.494;11.958;2022-07-23T02:08:19;18.90;84.20
7192;DHT22;3637;51.494;11.958;2022-07-23T02:11:21;18.90;83.70
7192;DHT22;3637;51.494;11.958;2022-07-23T02:14:23;18.80;84.10
7192;DHT22;3637;51.494;11.958;2022-07-23T02:17:25;18.80;84.30
7192;DHT22;3637;51.494;11.958;2022-07-23T02:20:26;18.80;84.20
7192;DHT22;3637;51.494;11.958;2022-07-23T02:23:30;18.80;83.90
7192;DHT22;3637;51.494;11.958;2022-07-23T02:26:32;19.00;83.40
7192;DHT22;3637;51.494;11.958;2022-07-23T02:29:35;19.10;82.80
7192;DHT22;3637;51.494;11.958;2022-07-23T02:32:37;19.10;82.80
7192;DHT22;3637;51.494;11.958;2022-07-23T02:35:40;19.30;82.30
7192;DHT22;3637;51.494;11.958;2022-07-23T02:38:43;19.10;82.20
7192;DHT22;3637;51.494;11.958;2022-07-23T02:41:45;19.10;82.20
7192;DHT22;3637;51.494;11.958;2022-07-23T02:44:46;19.20;82.00
7192;DHT22;3637;51.494;11.958;2022-07-23T02:47:48;19.10;81.80
7192;DHT22;3637;51.494;11.958;2022-07-23T02:50:50;19.20;81.90
7192;DHT22;3637;51.494;11.958;2022-07-23T02:53:54;19.20;81.80
7192;DHT22;3637;51.494;11.958;2022-07-23T02:56:56;19.20;81.80
7192;DHT22;3637;51.494;11.958;2022-07-23T02:59:58;19.10;81.40
7192;DHT22;3637;51.494;11.958;2022-07-23T03:02:59;19.10;81.60
7192;DHT22;3637;51.494;11.958;2022-07-23T03:06:01;18.90;81.60
7192;DHT22;3637;51.494;11.958;2022-07-23T03:09:06;19.00;81.60
7192;DHT22;3637;51.494;11.958;2022-07-23T03:12:08;19.10;81.60
7192;DHT22;3637;51.494;11.958;2022-07-23T03:15:10;19.10;81.20
7192;DHT22;3637;51.494;11.958;2022-07-23T03:18:12;19.20;80.90
7192;DHT22;3637;51.494;11.958;2022-07-23T03:21:14;19.40;80.40
7192;DHT22;3637;51.494;11.958;2022-07-23T03:24:17;19.30;80.30
7192;DHT22;3637;51.494;11.958;2022-07-23T03:27:19;19.30;80.50
7192;DHT22;3637;51.494;11.958;2022-07-23T03:30:21;19.20;80.70
7192;DHT22;3637;51.494;11.958;2022-07-23T03:33:23;19.10;81.20
7192;DHT22;3637;51.494;11.958;2022-07-23T03:36:25;19.10;81.70
7192;DHT22;3637;51.494;11.958;2022-07-23T03:39:29;19.00;81.90
7192;DHT22;3637;51.494;11.958;2022-07-23T03:42:31;19.00;82.30
7192;DHT22;3637;51.494;11.958;2022-07-23T03:45:33;18.90;82.60
7192;DHT22;3637;51.494;11.958;2022-07-23T03:48:34;19.00;82.70
7192;DHT22;3637;51.494;11.958;2022-07-23T03:51:36;18.90;83.10
7192;DHT22;3637;51.494;11.958;2022-07-23T03:54:39;19.00;83.60
7192;DHT22;3637;51.494;11.958;2022-07-23T03:57:41;18.90;84.60
7192;DHT22;3637;51.494;11.958;2022-07-23T04:00:43;18.80;85.80
7192;DHT22;3637;51.494;11.958;2022-07-23T04:03:45;18.80;87.60
7192;DHT22;3637;51.494;11.958;2022-07-23T04:06:47;18.70;90.60
7192;DHT22;3637;51.494;11.958;2022-07-23T04:09:51;18.70;91.30
7192;DHT22;3637;51.494;11.958;2022-07-23T04:12:53;18.40;92.50
7192;DHT22;3637;51.494;11.958;2022-07-23T04:15:54;18.20;94.20
7192;DHT22;3637;51.494;11.958;2022-07-23T04:18:56;18.20;94.60
7192;DHT22;3637;51.494;11.958;2022-07-23T04:21:58;18.20;95.30
7192;DHT22;3637;51.494;11.958;2022-07-23T04:25:02;18.10;95.70
7192;DHT22;3637;51.494;11.958;2022-07-23T04:28:04;18.10;95.90
7192;DHT22;3637;51.494;11.958;2022-07-23T04:31:06;18.00;96.70
7192;DHT22;3637;51.494;11.958;2022-07-23T04:34:08;17.80;96.40
7192;DHT22;3637;51.494;11.958;2022-07-23T04:37:10;17.80;96.80
7192;DHT22;3637;51.494;11.958;2022-07-23T04:40:13;17.80;96.80
7192;DHT22;3637;51.494;11.958;2022-07-23T04:43:15;17.80;97.70
7192;DHT22;3637;51.494;11.958;2022-07-23T04:46:17;17.90;97.50
7192;DHT22;3637;51.494;11.958;2022-07-23T04:49:19;17.80;97.30
7192;DHT22;3637;51.494;11.958;2022-07-23T04:52:21;17.90;97.70
7192;DHT22;3637;51.494;11.958;2022-07-23T04:55:24;17.80;97.30
7192;DHT22;3637;51.494;11.958;2022-07-23T04:58:26;17.80;96.90
7192;DHT22;3637;51.494;11.958;2022-07-23T05:01:28;17.90;97.50
7192;DHT22;3637;51.494;11.958;2022-07-23T05:04:30;17.80;97.70
7192;DHT22;3637;51.494;11.958;2022-07-23T05:07:32;17.90;97.90
7192;DHT22;3637;51.494;11.958;2022-07-23T05:10:35;17.80;97.30
7192;DHT22;3637;51.494;11.958;2022-07-23T05:13:37;17.90;97.10
7192;DHT22;3637;51.494;11.958;2022-07-23T05:16:39;17.80;97.80
7192;DHT22;3637;51.494;11.958;2022-07-23T05:19:41;17.90;97.10
7192;DHT22;3637;51.494;11.958;2022-07-23T05:22:43;17.80;97.30
7192;DHT22;3637;51.494;11.958;2022-07-23T05:25:46;17.90;96.70
7192;DHT22;3637;51.494;11.958;2022-07-23T05:28:48;17.90;97.30
7192;DHT22;3637;51.494;11.958;2022-07-23T05:31:50;17.80;97.50
7192;DHT22;3637;51.494;11.958;2022-07-23T05:34:52;17.90;97.60
7192;DHT22;3637;51.494;11.958;2022-07-23T05:37:54;17.90;97.80
7192;DHT22;3637;51.494;11.958;2022-07-23T05:40:57;18.00;98.10
7192;DHT22;3637;51.494;11.958;2022-07-23T05:43:59;17.80;98.80
7192;DHT22;3637;51.494;11.958;2022-07-23T05:47:01;17.70;99.70
7192;DHT22;3637;51.494;11.958;2022-07-23T05:50:04;17.70;99.90
7192;DHT22;3637;51.494;11.958;2022-07-23T05:53:06;17.80;99.90
7192;DHT22;3637;51.494;11.958;2022-07-23T05:56:09;17.80;99.90
7192;DHT22;3637;51.494;11.958;2022-07-23T05:59:11;17.80;99.90
7192;DHT22;3637;51.494;11.958;2022-07-23T06:02:13;17.60;99.50
7192;DHT22;3637;51.494;11.958;2022-07-23T06:05:15;17.60;99.90
7192;DHT22;3637;51.494;11.958;2022-07-23T06:08:17;17.70;99.90
7192;DHT22;3637;51.494;11.958;2022-07-23T06:11:20;17.70;99.70
7192;DHT22;3637;51.494;11.958;2022-07-23T06:14:22;17.60;99.70
7192;DHT22;3637;51.494;11.958;2022-07-23T06:17:25;17.70;99.30
7192;DHT22;3637;51.494;11.958;2022-07-23T06:20:27;17.60;99.80
7192;DHT22;3637;51.494;11.958;2022-07-23T06:23:29;17.60;99.80
7192;DHT22;3637;51.494;11.958;2022-07-23T06:26:32;17.60;99.90
7192;DHT22;3637;51.494;11.958;2022-07-23T06:29:34;17.70;99.90
7192;DHT22;3637;51.494;11.958;2022-07-23T06:32:36;17.60;99.90
7192;DHT22;3637;51.494;11.958;2022-07-23T06:35:38;17.60;99.30
7192;DHT22;3637;51.494;11.958;2022-07-23T06:38:40;17.60;99.90
7192;DHT22;3637;51.494;11.958;2022-07-23T06:41:43;17.70;99.90
7192;DHT22;3637;51.494;11.958;2022-07-23T06:44:45;17.80;99.90
7192;DHT22;3637;51.494;11.958;2022-07-23T06:47:47;17.80;99.60
7192;DHT22;3637;51.494;11.958;2022-07-23T06:50:49;17.90;99.30
7192;DHT22;3637;51.494;11.958;2022-07-23T06:53:52;18.00;98.60
7192;DHT22;3637;51.494;11.958;2022-07-23T06:56:56;18.00;98.70
7192;DHT22;3637;51.494;11.958;2022-07-23T06:59:58;18.00;98.80
7192;DHT22;3637;51.494;11.958;2022-07-23T07:03:00;18.00;98.70
7192;DHT22;3637;51.494;11.958;2022-07-23T07:06:01;18.00;98.10
7192;DHT22;3637;51.494;11.958;2022-07-23T07:09:04;18.00;98.30
7192;DHT22;3637;51.494;11.958;2022-07-23T07:12:08;18.00;98.30
7192;DHT22;3637;51.494;11.958;2022-07-23T07:15:10;18.00;97.70
7192;DHT22;3637;51.494;11.958;2022-07-23T07:18:12;18.00;97.60
7192;DHT22;3637;51.494;11.958;2022-07-23T07:21:14;18.00;98.20
7192;DHT22;3637;51.494;11.958;2022-07-23T07:24:15;18.00;98.00
7192;DHT22;3637;51.494;11.958;2022-07-23T07:27:19;18.10;97.50
7192;DHT22;3637;51.494;11.958;2022-07-23T07:30:21;18.20;97.50
7192;DHT22;3637;51.494;11.958;2022-07-23T07:33:23;18.20;97.70
7192;DHT22;3637;51.494;11.958;2022-07-23T07:36:25;18.40;99.10
7192;DHT22;3637;51.494;11.958;2022-07-23T07:39:27;18.40;98.00
7192;DHT22;3637;51.494;11.958;2022-07-23T07:42:30;18.50;97.20
7192;DHT22;3637;51.494;11.958;2022-07-23T07:45:32;18.50;98.00
7192;DHT22;3637;51.494;11.958;2022-07-23T07:48:34;18.60;97.90
7192;DHT22;3637;51.494;11.958;2022-07-23T07:51:36;18.60;97.90
7192;DHT22;3637;51.494;11.958;2022-07-23T07:54:38;18.60;97.50
7192;DHT22;3637;51.494;11.958;2022-07-23T07:57:42;18.50;96.80
7192;DHT22;3637;51.494;11.958;2022-07-23T08:00:43;18.40;96.40
7192;DHT22;3637;51.494;11.958;2022-07-23T08:03:45;18.40;96.90
7192;DHT22;3637;51.494;11.958;2022-07-23T08:06:47;18.30;96.80
7192;DHT22;3637;51.494;11.958;2022-07-23T08:09:49;18.30;97.30
7192;DHT22;3637;51.494;11.958;2022-07-23T08:12:54;18.30;97.80
7192;DHT22;3637;51.494;11.958;2022-07-23T08:15:57;18.30;98.30
7192;DHT22;3637;51.494;11.958;2022-07-23T08:18:58;18.40;98.10
7192;DHT22;3637;51.494;11.958;2022-07-23T08:22:00;18.40;97.50
7192;DHT22;3637;51.494;11.958;2022-07-23T08:25:02;18.20;97.90
7192;DHT22;3637;51.494;11.958;2022-07-23T08:28:09;18.20;98.10
7192;DHT22;3637;51.494;11.958;2022-07-23T08:31:11;18.30;97.80
7192;DHT22;3637;51.494;11.958;2022-07-23T08:34:13;18.30;98.00
7192;DHT22;3637;51.494;11.958;2022-07-23T08:37:15;18.40;97.10
7192;DHT22;3637;51.494;11.958;2022-07-23T08:40:16;18.40;97.30
7192;DHT22;3637;51.494;11.958;2022-07-23T08:43:21;18.50;97.50
7192;DHT22;3637;51.494;11.958;2022-07-23T08:46:23;18.50;96.60
7192;DHT22;3637;51.494;11.958;2022-07-23T08:49:29;18.50;95.90
7192;DHT22;3637;51.494;11.958;2022-07-23T08:52:31;18.50;96.70
7192;DHT22;3637;51.494;11.958;2022-07-23T08:55:34;18.60;96.50
7192;DHT22;3637;51.494;11.958;2022-07-23T08:58:37;18.60;96.30
7192;DHT22;3637;51.494;11.958;2022-07-23T09:01:39;18.60;96.00
7192;DHT22;3637;51.494;11.958;2022-07-23T09:04:41;18.70;96.60
7192;DHT22;3637;51.494;11.958;2022-07-23T09:08:07;18.60;96.80
7192;DHT22;3637;51.494;11.958;2022-07-23T09:11:11;18.70;96.50
7192;DHT22;3637;51.494;11.958;2022-07-23T09:14:15;18.80;96.70
7192;DHT22;3637;51.494;11.958;2022-07-23T09:17:17;18.90;97.10
7192;DHT22;3637;51.494;11.958;2022-07-23T09:20:19;18.80;96.70
7192;DHT22;3637;51.494;11.958;2022-07-23T09:23:37;18.90;96.60
7192;DHT22;3637;51.494;11.958;2022-07-23T09:26:40;19.00;96.40
7192;DHT22;3637;51.494;11.958;2022-07-23T09:29:55;19.00;96.40
7192;DHT22;3637;51.494;11.958;2022-07-23T09:33:05;18.90;96.10
7192;DHT22;3637;51.494;11.958;2022-07-23T09:36:08;19.00;95.90
7192;DHT22;3637;51.494;11.958;2022-07-23T09:39:11;19.00;96.40
7192;DHT22;3637;51.494;11.958;2022-07-23T09:42:15;19.00;96.40
7192;DHT22;3637;51.494;11.958;2022-07-23T09:45:18;18.90;96.10
7192;DHT22;3637;51.494;11.958;2022-07-23T09:48:21;19.00;96.50
7192;DHT22;3637;51.494;11.958;2022-07-23T09:51:24;19.10;96.20
7192;DHT22;3637;51.494;11.958;2022-07-23T09:54:32;19.00;96.40
7192;DHT22;3637;51.494;11.958;2022-07-23T09:57:35;19.00;96.00
7192;DHT22;3637;51.494;11.958;2022-07-23T10:00:38;19.00;95.50
7192;DHT22;3637;51.494;11.958;2022-07-23T10:03:41;19.10;95.60
7192;DHT22;3637;51.494;11.958;2022-07-23T10:06:43;19.20;94.90
7192;DHT22;3637;51.494;11.958;2022-07-23T10:09:47;19.30;95.20
7192;DHT22;3637;51.494;11.958;2022-07-23T10:12:51;19.30;94.40
7192;DHT22;3637;51.494;11.958;2022-07-23T10:16:13;19.40;94.10
7192;DHT22;3637;51.494;11.958;2022-07-23T10:19:16;19.40;93.60
7192;DHT22;3637;51.494;11.958;2022-07-23T10:22:20;19.30;92.60
7192;DHT22;3637;51.494;11.958;2022-07-23T10:25:26;19.30;93.00
7192;DHT22;3637;51.494;11.958;2022-07-23T10:28:59;19.30;92.80
7192;DHT22;3637;51.494;11.958;2022-07-23T10:32:12;19.30;93.30
7192;DHT22;3637;51.494;11.958;2022-07-23T10:35:25;19.30;93.10
7192;DHT22;3637;51.494;11.958;2022-07-23T10:38:30;19.30;93.10
7192;DHT22;3637;51.494;11.958;2022-07-23T10:41:37;19.30;92.70
7192;DHT22;3637;51.494;11.958;2022-07-23T10:44:41;19.30;92.70
7192;DHT22;3637;51.494;11.958;2022-07-23T10:47:45;19.50;92.80
7192;DHT22;3637;51.494;11.958;2022-07-23T10:51:08;19.60;93.20
7192;DHT22;3637;51.494;11.958;2022-07-23T10:54:21;19.70;92.80
7192;DHT22;3637;51.494;11.958;2022-07-23T10:57:24;19.90;92.20
7192;DHT22;3637;51.494;11.958;2022-07-23T11:00:27;20.20;92.30
7192;DHT22;3637;51.494;11.958;2022-07-23T11:03:33;20.20;92.10
7192;DHT22;3637;51.494;11.958;2022-07-23T11:07:07;20.40;91.90
7192;DHT22;3637;51.494;11.958;2022-07-23T11:10:32;20.40;91.70
7192;DHT22;3637;51.494;11.958;2022-07-23T11:13:39;20.50;91.50
7192;DHT22;3637;51.494;11.958;2022-07-23T11:16:46;20.70;91.70
7192;DHT22;3637;51.494;11.958;2022-07-23T11:20:21;20.80;91.00
7192;DHT22;3637;51.494;11.958;2022-07-23T11:23:57;20.80;91.00
7192;DHT22;3637;51.494;11.958;2022-07-23T11:27:01;21.00;89.40
7192;DHT22;3637;51.494;11.958;2022-07-23T11:30:05;21.00;89.30
7192;DHT22;3637;51.494;11.958;2022-07-23T11:33:17;21.10;89.40
7192;DHT22;3637;51.494;11.958;2022-07-23T11:36:20;21.20;88.90
7192;DHT22;3637;51.494;11.958;2022-07-23T11:39:25;21.30;89.10
7192;DHT22;3637;51.494;11.958;2022-07-23T11:42:27;21.50;89.20
7192;DHT22;3637;51.494;11.958;2022-07-23T11:45:34;21.50;88.20
7192;DHT22;3637;51.494;11.958;2022-07-23T11:48:36;21.50;89.70
7192;DHT22;3637;51.494;11.958;2022-07-23T11:51:39;21.60;89.50
7192;DHT22;3637;51.494;11.958;2022-07-23T11:54:48;21.40;87.00
7192;DHT22;3637;51.494;11.958;2022-07-23T11:57:51;21.50;88.40
7192;DHT22;3637;51.494;11.958;2022-07-23T12:00:55;21.50;88.10
7192;DHT22;3637;51.494;11.958;2022-07-23T12:03:57;21.60;86.90
7192;DHT22;3637;51.494;11.958;2022-07-23T12:07:00;21.50;88.80
7192;DHT22;3637;51.494;11.958;2022-07-23T12:10:04;21.60;89.20
7192;DHT22;3637;51.494;11.958;2022-07-23T12:13:09;21.70;89.00
7192;DHT22;3637;51.494;11.958;2022-07-23T12:16:12;21.80;89.10
7192;DHT22;3637;51.494;11.958;2022-07-23T12:19:13;21.90;87.80
7192;DHT22;3637;51.494;11.958;2022-07-23T12:22:17;21.90;87.50
7192;DHT22;3637;51.494;11.958;2022-07-23T12:25:21;22.00;86.40
7192;DHT22;3637;51.494;11.958;2022-07-23T12:28:28;22.00;87.30
7192;DHT22;3637;51.494;11.958;2022-07-23T12:31:30;22.10;86.30
7192;DHT22;3637;51.494;11.958;2022-07-23T12:34:32;22.20;87.00
7192;DHT22;3637;51.494;11.958;2022-07-23T12:37:37;22.30;87.10
7192;DHT22;3637;51.494;11.958;2022-07-23T12:40:43;22.40;85.10
7192;DHT22;3637;51.494;11.958;2022-07-23T12:43:46;22.40;85.80
7192;DHT22;3637;51.494;11.958;2022-07-23T12:46:49;22.40;85.80
7192;DHT22;3637;51.494;11.958;2022-07-23T12:49:51;22.50;85.50
7192;DHT22;3637;51.494;11.958;2022-07-23T12:53:03;22.60;85.60
7192;DHT22;3637;51.494;11.958;2022-07-23T12:56:07;22.60;85.70
7192;DHT22;3637;51.494;11.958;2022-07-23T12:59:11;22.80;85.80
7192;DHT22;3637;51.494;11.958;2022-07-23T13:02:15;22.90;84.60
7192;DHT22;3637;51.494;11.958;2022-07-23T13:05:17;22.90;84.90
7192;DHT22;3637;51.494;11.958;2022-07-23T13:08:21;22.90;84.40
7192;DHT22;3637;51.494;11.958;2022-07-23T13:11:23;23.00;83.50
7192;DHT22;3637;51.494;11.958;2022-07-23T13:14:26;23.00;83.40
7192;DHT22;3637;51.494;11.958;2022-07-23T13:17:28;23.20;83.40
7192;DHT22;3637;51.494;11.958;2022-07-23T13:20:31;23.30;83.00
7192;DHT22;3637;51.494;11.958;2022-07-23T13:23:36;23.30;82.60
7192;DHT22;3637;51.494;11.958;2022-07-23T13:26:38;23.40;80.90
7192;DHT22;3637;51.494;11.958;2022-07-23T13:29:40;23.20;80.60
7192;DHT22;3637;51.494;11.958;2022-07-23T13:32:42;23.20;81.40
7192;DHT22;3637;51.494;11.958;2022-07-23T13:35:44;23.20;82.30
7192;DHT22;3637;51.494;11.958;2022-07-23T13:38:48;23.20;81.40
7192;DHT22;3637;51.494;11.958;2022-07-23T13:41:50;23.10;80.60
7192;DHT22;3637;51.494;11.958;2022-07-23T13:44:51;23.00;79.90
7192;DHT22;3637;51.494;11.958;2022-07-23T13:47:53;22.90;80.90
7192;DHT22;3637;51.494;11.958;2022-07-23T13:50:55;22.80;81.80
7192;DHT22;3637;51.494;11.958;2022-07-23T13:53:59;22.80;81.50
7192;DHT22;3637;51.494;11.958;2022-07-23T13:57:04;22.70;82.90
7192;DHT22;3637;51.494;11.958;2022-07-23T14:00:08;22.70;84.10
7192;DHT22;3637;51.494;11.958;2022-07-23T14:03:11;22.70;82.60
7192;DHT22;3637;51.494;11.958;2022-07-23T14:06:13;22.80;81.60
7192;DHT22;3637;51.494;11.958;2022-07-23T14:09:16;22.80;81.90
7192;DHT22;3637;51.494;11.958;2022-07-23T14:12:18;22.80;82.60
7192;DHT22;3637;51.494;11.958;2022-07-23T14:15:20;22.80;81.90
7192;DHT22;3637;51.494;11.958;2022-07-23T14:18:22;22.90;81.70
7192;DHT22;3637;51.494;11.958;2022-07-23T14:21:23;22.80;81.70
7192;DHT22;3637;51.494;11.958;2022-07-23T14:24:27;22.90;81.90
7192;DHT22;3637;51.494;11.958;2022-07-23T14:27:29;23.00;81.30
7192;DHT22;3637;51.494;11.958;2022-07-23T14:30:31;23.10;81.40
7192;DHT22;3637;51.494;11.958;2022-07-23T14:33:32;23.30;80.10
7192;DHT22;3637;51.494;11.958;2022-07-23T14:36:34;23.30;79.40
7192;DHT22;3637;51.494;11.958;2022-07-23T14:39:38;23.30;80.10
7192;DHT22;3637;51.494;11.958;2022-07-23T14:42:40;23.30;78.50
7192;DHT22;3637;51.494;11.958;2022-07-23T14:45:42;23.20;79.40
7192;DHT22;3637;51.494;11.958;2022-07-23T14:48:44;23.10;80.30
7192;DHT22;3637;51.494;11.958;2022-07-23T14:51:46;23.30;80.00
7192;DHT22;3637;51.494;11.958;2022-07-23T14:54:49;23.40;79.40
7192;DHT22;3637;51.494;11.958;2022-07-23T14:57:51;23.50;78.90
7192;DHT22;3637;51.494;11.958;2022-07-23T15:00:53;23.50;77.40
7192;DHT22;3637;51.494;11.958;2022-07-23T15:03:55;23.50;76.20
7192;DHT22;3637;51.494;11.958;2022-07-23T15:06:57;23.70;76.40
7192;DHT22;3637;51.494;11.958;2022-07-23T15:10:01;23.80;75.30
7192;DHT22;3637;51.494;11.958;2022-07-23T15:13:03;23.70;75.90
7192;DHT22;3637;51.494;11.958;2022-07-23T15:16:05;23.60;76.70
7192;DHT22;3637;51.494;11.958;2022-07-23T15:19:10;23.70;76.90
7192;DHT22;3637;51.494;11.958;2022-07-23T15:22:12;23.70;77.00
7192;DHT22;3637;51.494;11.958;2022-07-23T15:25:15;23.90;74.60
7192;DHT22;3637;51.494;11.958;2022-07-23T15:28:17;23.90;75.80
7192;DHT22;3637;51.494;11.958;2022-07-23T15:31:19;24.00;74.30
7192;DHT22;3637;51.494;11.958;2022-07-23T15:34:21;24.10;73.70
7192;DHT22;3637;51.494;11.958;2022-07-23T15:37:23;24.10;71.60
7192;DHT22;3637;51.494;11.958;2022-07-23T15:40:26;24.10;73.50
7192;DHT22;3637;51.494;11.958;2022-07-23T15:43:28;24.10;74.20
7192;DHT22;3637;51.494;11.958;2022-07-23T15:46:31;24.20;71.80
7192;DHT22;3637;51.494;11.958;2022-07-23T15:49:33;24.20;72.30
7192;DHT22;3637;51.494;11.958;2022-07-23T15:52:38;24.30;71.40
7192;DHT22;3637;51.494;11.958;2022-07-23T15:55:42;24.40;70.00
7192;DHT22;3637;51.494;11.958;2022-07-23T15:58:45;24.50;69.10
7192;DHT22;3637;51.494;11.958;2022-07-23T16:01:47;24.40;70.00
7192;DHT22;3637;51.494;11.958;2022-07-23T16:04:51;24.30;70.60
7192;DHT22;3637;51.494;11.958;2022-07-23T16:07:55;24.30;70.80
7192;DHT22;3637;51.494;11.958;2022-07-23T16:10:58;24.20;71.00
7192;DHT22;3637;51.494;11.958;2022-07-23T16:14:00;24.20;70.80
7192;DHT22;3637;51.494;11.958;2022-07-23T16:17:03;24.30;69.30
7192;DHT22;3637;51.494;11.958;2022-07-23T16:20:06;24.30;68.40
7192;DHT22;3637;51.494;11.958;2022-07-23T16:23:08;24.40;68.30
7192;DHT22;3637;51.494;11.958;2022-07-23T16:26:12;24.50;68.40
7192;DHT22;3637;51.494;11.958;2022-07-23T16:29:14;24.50;66.60
7192;DHT22;3637;51.494;11.958;2022-07-23T16:32:16;24.60;65.40
7192;DHT22;3637;51.494;11.958;2022-07-23T16:35:18;24.60;62.40
7192;DHT22;3637;51.494;11.958;2022-07-23T16:38:20;24.60;62.20
7192;DHT22;3637;51.494;11.958;2022-07-23T16:41:23;24.70;61.70
7192;DHT22;3637;51.494;11.958;2022-07-23T16:44:25;24.70;61.90
7192;DHT22;3637;51.494;11.958;2022-07-23T16:47:27;24.60;61.30
7192;DHT22;3637;51.494;11.958;2022-07-23T16:50:29;24.60;60.90
7192;DHT22;3637;51.494;11.958;2022-07-23T16:53:31;24.60;59.70
7192;DHT22;3637;51.494;11.958;2022-07-23T16:56:35;24.50;60.20
7192;DHT22;3637;51.494;11.958;2022-07-23T16:59:37;24.40;60.10
7192;DHT22;3637;51.494;11.958;2022-07-23T17:02:39;24.40;60.10
7192;DHT22;3637;51.494;11.958;2022-07-23T17:05:42;24.40;59.90
7192;DHT22;3637;51.494;11.958;2022-07-23T17:08:44;24.30;59.60
7192;DHT22;3637;51.494;11.958;2022-07-23T17:11:48;24.30;61.30
7192;DHT22;3637;51.494;11.958;2022-07-23T17:14:50;24.30;60.90
7192;DHT22;3637;51.494;11.958;2022-07-23T17:17:52;24.40;59.40
7192;DHT22;3637;51.494;11.958;2022-07-23T17:20:53;24.40;58.70
7192;DHT22;3637;51.494;11.958;2022-07-23T17:23:56;24.40;58.50
7192;DHT22;3637;51.494;11.958;2022-07-23T17:26:59;24.40;58.00
7192;DHT22;3637;51.494;11.958;2022-07-23T17:30:02;24.40;58.80
7192;DHT22;3637;51.494;11.958;2022-07-23T17:33:04;24.30;57.60
7192;DHT22;3637;51.494;11.958;2022-07-23T17:36:08;24.30;58.60
7192;DHT22;3637;51.494;11.958;2022-07-23T17:39:10;24.20;58.80
7192;DHT22;3637;51.494;11.958;2022-07-23T17:42:14;24.20;59.00
7192;DHT22;3637;51.494;11.958;2022-07-23T17:45:15;24.20;58.50
7192;DHT22;3637;51.494;11.958;2022-07-23T17:48:17;24.20;58.20
7192;DHT22;3637;51.494;11.958;2022-07-23T17:51:19;24.20;57.60
7192;DHT22;3637;51.494;11.958;2022-07-23T17:54:21;24.10;58.20
7192;DHT22;3637;51.494;11.958;2022-07-23T17:57:27;23.90;57.50
7192;DHT22;3637;51.494;11.958;2022-07-23T18:00:31;23.90;58.20
7192;DHT22;3637;51.494;11.958;2022-07-23T18:03:33;23.80;58.30
7192;DHT22;3637;51.494;11.958;2022-07-23T18:06:36;23.80;58.60
7192;DHT22;3637;51.494;11.958;2022-07-23T18:09:38;23.60;59.00
7192;DHT22;3637;51.494;11.958;2022-07-23T18:12:42;23.60;59.30
7192;DHT22;3637;51.494;11.958;2022-07-23T18:15:44;23.50;60.00
7192;DHT22;3637;51.494;11.958;2022-07-23T18:18:46;23.50;59.60
7192;DHT22;3637;51.494;11.958;2022-07-23T18:21:48;23.40;59.70
7192;DHT22;3637;51.494;11.958;2022-07-23T18:24:50;23.30;60.00
7192;DHT22;3637;51.494;11.958;2022-07-23T18:27:53;23.30;59.60
7192;DHT22;3637;51.494;11.958;2022-07-23T18:30:56;23.30;59.50
7192;DHT22;3637;51.494;11.958;2022-07-23T18:33:58;23.10;59.80
7192;DHT22;3637;51.494;11.958;2022-07-23T18:37:00;23.20;60.60
7192;DHT22;3637;51.494;11.958;2022-07-23T18:40:03;23.10;60.40
7192;DHT22;3637;51.494;11.958;2022-07-23T18:43:07;23.10;60.70
7192;DHT22;3637;51.494;11.958;2022-07-23T18:46:09;23.00;61.50
7192;DHT22;3637;51.494;11.958;2022-07-23T18:49:11;23.00;60.90
7192;DHT22;3637;51.494;11.958;2022-07-23T18:52:13;22.90;61.70
7192;DHT22;3637;51.494;11.958;2022-07-23T18:55:15;22.90;60.90
7192;DHT22;3637;51.494;11.958;2022-07-23T18:58:18;22.80;61.30
7192;DHT22;3637;51.494;11.958;2022-07-23T19:01:20;22.70;60.70
7192;DHT22;3637;51.494;11.958;2022-07-23T19:04:24;22.70;60.90
7192;DHT22;3637;51.494;11.958;2022-07-23T19:07:26;22.60;61.10
7192;DHT22;3637;51.494;11.958;2022-07-23T19:10:28;22.50;61.50
7192;DHT22;3637;51.494;11.958;2022-07-23T19:13:31;22.50;61.50
7192;DHT22;3637;51.494;11.958;2022-07-23T19:16:33;22.50;62.00
7192;DHT22;3637;51.494;11.958;2022-07-23T19:19:35;22.40;61.40
7192;DHT22;3637;51.494;11.958;2022-07-23T19:22:38;22.40;61.70
7192;DHT22;3637;51.494;11.958;2022-07-23T19:25:40;22.30;61.60
7192;DHT22;3637;51.494;11.958;2022-07-23T19:28:43;22.20;62.90
7192;DHT22;3637;51.494;11.958;2022-07-23T19:31:47;22.10;62.50
7192;DHT22;3637;51.494;11.958;2022-07-23T19:34:48;22.10;62.80